createdAt,value
2019-05-11T00:00:23.541Z,1.90
2019-05-11T00:02:50.368Z,1.72
2019-05-11T00:05:16.858Z,1.65
2019-05-11T00:07:43.831Z,2.55
2019-05-11T00:10:10.233Z,2.58
2019-05-11T00:12:37.001Z,2.42
2019-05-11T00:15:07.074Z,1.77
2019-05-11T00:17:33.787Z,2.27
2019-05-11T00:20:00.995Z,6.92
2019-05-11T00:22:27.390Z,4.55
2019-05-11T00:24:53.943Z,4.62
2019-05-11T00:27:20.859Z,2.95
2019-05-11T00:29:47.746Z,3.47
2019-05-11T00:32:14.392Z,2.37
2019-05-11T00:34:40.852Z,2.27
2019-05-11T00:37:08.576Z,2.33
2019-05-11T00:39:35.571Z,1.75
2019-05-11T00:42:02.590Z,2.22
2019-05-11T00:44:29.536Z,4.33
2019-05-11T00:46:56.503Z,1.92
2019-05-11T00:49:23.119Z,1.65
2019-05-11T00:51:49.749Z,2.47
2019-05-11T00:54:18.113Z,2.05
2019-05-11T00:56:44.775Z,1.65
2019-05-11T00:59:21.456Z,1.92
2019-05-11T01:01:39.548Z,2.70
2019-05-11T01:04:05.966Z,4.12
2019-05-11T01:06:32.738Z,2.92
2019-05-11T01:08:59.472Z,2.40
2019-05-11T01:11:26.118Z,1.75
2019-05-11T01:13:52.746Z,2.15
2019-05-11T01:16:19.443Z,4.70
2019-05-11T01:18:46.338Z,5.53
2019-05-11T01:21:12.828Z,8.98
2019-05-11T01:23:39.457Z,2.22
2019-05-11T01:26:06.317Z,2.70
2019-05-11T01:28:32.860Z,3.12
2019-05-11T01:30:59.628Z,2.83
2019-05-11T01:33:26.212Z,2.45
2019-05-11T01:35:52.851Z,4.33
2019-05-11T01:38:20.825Z,2.35
2019-05-11T01:40:58.014Z,4.30
2019-05-11T01:43:15.686Z,4.58
2019-05-11T01:45:42.203Z,3.98
2019-05-11T01:48:08.542Z,2.47
2019-05-11T01:50:35.552Z,2.02
2019-05-11T01:53:02.442Z,2.52
2019-05-11T01:55:28.871Z,3.10
2019-05-11T01:57:55.514Z,2.30
2019-05-11T02:00:22.176Z,2.35
2019-05-11T02:02:48.675Z,5.28
2019-05-11T02:05:27.764Z,2.33
2019-05-11T02:07:54.294Z,5.87
2019-05-11T02:10:20.831Z,2.52
2019-05-11T02:12:47.629Z,2.20
2019-05-11T02:15:14.110Z,3.15
2019-05-11T02:17:40.702Z,4.47
2019-05-11T02:20:06.983Z,2.12
2019-05-11T02:22:33.336Z,2.33
2019-05-11T02:24:59.651Z,3.17
2019-05-11T02:27:26.535Z,3.65
2019-05-11T02:29:53.069Z,3.10
2019-05-11T02:32:19.496Z,4.45
2019-05-11T02:34:46.200Z,2.95
2019-05-11T02:37:13.025Z,4.45
2019-05-11T02:39:40.569Z,7.53
2019-05-11T02:42:07.284Z,5.33
2019-05-11T02:44:33.813Z,3.83
2019-05-11T02:47:00.356Z,3.83
2019-05-11T02:49:28.124Z,3.12
2019-05-11T02:51:55.187Z,4.60
2019-05-11T02:54:21.735Z,4.20
2019-05-11T02:56:48.458Z,3.55
2019-05-11T02:59:14.783Z,4.05
2019-05-11T03:01:41.409Z,3.58
2019-05-11T03:04:07.980Z,11.68
2019-05-11T03:06:37.166Z,3.70
2019-05-11T03:09:05.991Z,14.38
2019-05-11T03:11:54.015Z,7.95
2019-05-11T03:14:06.275Z,21.05
2019-05-11T03:16:32.904Z,13.58
2019-05-11T03:19:01.537Z,14.93
2019-05-11T03:21:32.368Z,12.93
2019-05-11T03:24:00.256Z,6.17
2019-05-11T03:26:27.291Z,8.75
2019-05-11T03:28:53.813Z,14.38
2019-05-11T03:31:20.360Z,8.75
2019-05-11T03:33:48.116Z,11.30
2019-05-11T03:36:14.669Z,24.52
2019-05-11T03:38:41.309Z,22.58
2019-05-11T03:41:07.910Z,15.08
2019-05-11T03:43:36.837Z,14.23
2019-05-11T03:46:03.387Z,15.10
2019-05-11T03:48:30.165Z,13.72
2019-05-11T03:50:57.009Z,8.48
2019-05-11T03:53:23.622Z,15.80
2019-05-11T03:55:50.309Z,13.45
2019-05-11T03:58:18.393Z,10.08
2019-05-11T04:00:44.935Z,6.30
2019-05-11T04:03:11.580Z,7.00
2019-05-11T04:05:38.121Z,8.80
2019-05-11T04:08:04.923Z,4.78
2019-05-11T04:10:31.568Z,5.00
2019-05-11T04:12:58.283Z,7.12
2019-05-11T04:15:25.129Z,8.90
2019-05-11T04:17:51.905Z,3.27
2019-05-11T04:20:18.233Z,7.55
2019-05-11T04:22:44.783Z,5.70
2019-05-11T04:25:11.518Z,3.85
2019-05-11T04:27:38.113Z,5.53
2019-05-11T04:30:06.396Z,4.33
2019-05-11T04:32:33.052Z,8.58
2019-05-11T04:35:00.174Z,3.52
2019-05-11T04:37:27.067Z,2.75
2019-05-11T04:39:53.996Z,9.13
2019-05-11T04:42:21.163Z,9.08
2019-05-11T04:44:52.106Z,6.72
2019-05-11T04:47:16.407Z,7.97
2019-05-11T04:49:43.074Z,6.83
2019-05-11T04:52:10.042Z,4.95
2019-05-11T04:54:36.794Z,8.48
2019-05-11T04:57:03.603Z,6.15
2019-05-11T04:59:30.445Z,5.83
2019-05-11T05:01:56.986Z,3.95
2019-05-11T05:04:23.334Z,4.33
2019-05-11T05:06:59.611Z,4.60
2019-05-11T05:09:18.982Z,7.15
2019-05-11T05:11:45.824Z,4.85
2019-05-11T05:14:12.423Z,3.27
2019-05-11T05:16:39.101Z,6.30
2019-05-11T05:19:05.804Z,4.30
2019-05-11T05:21:32.645Z,3.92
2019-05-11T05:23:59.322Z,3.62
2019-05-11T05:26:25.962Z,4.67
2019-05-11T05:28:53.174Z,6.20
2019-05-11T05:31:23.248Z,4.17
2019-05-11T05:33:50.033Z,3.70
2019-05-11T05:36:16.874Z,3.67
2019-05-11T05:38:43.586Z,2.45
2019-05-11T05:41:10.867Z,5.33
2019-05-11T05:43:37.744Z,4.08
2019-05-11T05:46:04.196Z,3.05
2019-05-11T05:48:30.651Z,2.52
2019-05-11T05:50:57.556Z,1.98
2019-05-11T05:53:24.165Z,4.25
2019-05-11T05:55:50.508Z,1.70
2019-05-11T05:58:17.088Z,3.33
2019-05-11T06:00:43.519Z,2.70
2019-05-11T06:03:10.344Z,3.10
2019-05-11T06:05:37.147Z,2.95
2019-05-11T06:08:03.987Z,2.95
2019-05-11T06:10:30.524Z,3.52
2019-05-11T06:12:57.310Z,2.77
2019-05-11T06:15:24.105Z,2.87
2019-05-11T06:17:50.563Z,4.30
2019-05-11T06:20:17.309Z,1.65
2019-05-11T06:22:43.728Z,2.42
2019-05-11T06:25:10.267Z,1.10
2019-05-11T06:27:37.313Z,1.98
2019-05-11T06:30:05.162Z,1.95
2019-05-11T06:32:31.827Z,3.00
2019-05-11T06:34:58.300Z,2.58
2019-05-11T06:37:25.076Z,2.33
2019-05-11T06:39:51.537Z,2.12
2019-05-11T06:42:19.376Z,2.62
2019-05-11T06:44:45.815Z,1.47
2019-05-11T06:47:12.333Z,2.12
2019-05-11T06:49:39.290Z,1.82
2019-05-11T06:52:06.089Z,2.30
2019-05-11T06:54:32.979Z,2.83
2019-05-11T06:56:59.821Z,1.98
2019-05-11T06:59:26.211Z,1.25
2019-05-11T07:01:52.740Z,2.30
2019-05-11T07:04:19.732Z,1.77
2019-05-11T07:06:46.396Z,2.37
2019-05-11T07:09:13.385Z,1.70
2019-05-11T07:11:40.090Z,3.30
2019-05-11T07:14:20.139Z,2.30
2019-05-11T07:16:35.175Z,1.50
2019-05-11T07:19:01.719Z,2.17
2019-05-11T07:21:28.247Z,2.62
2019-05-11T07:23:55.089Z,1.95
2019-05-11T07:26:21.762Z,1.95
2019-05-11T07:28:48.286Z,1.25
2019-05-11T07:31:15.001Z,1.52
2019-05-11T07:33:41.845Z,1.92
2019-05-11T07:36:08.482Z,2.12
2019-05-11T07:38:35.576Z,1.65
2019-05-11T07:41:02.254Z,1.37
2019-05-11T07:43:29.341Z,1.42
2019-05-11T07:45:58.271Z,2.08
2019-05-11T07:48:24.473Z,1.05
2019-05-11T07:50:51.279Z,0.98
2019-05-11T07:53:18.587Z,1.82
2019-05-11T07:55:45.696Z,1.10
2019-05-11T07:58:12.437Z,1.50
2019-05-11T08:00:39.971Z,2.30
2019-05-11T08:03:09.041Z,1.25
2019-05-11T08:05:35.447Z,1.92
2019-05-11T08:08:02.147Z,1.17
2019-05-11T08:10:28.788Z,1.95
2019-05-11T08:12:55.460Z,1.40
2019-05-11T08:15:22.184Z,2.33
2019-05-11T08:17:49.088Z,1.60
2019-05-11T08:20:15.775Z,1.47
2019-05-11T08:22:42.427Z,1.15
2019-05-11T08:25:09.484Z,2.98
2019-05-11T08:27:37.831Z,2.25
2019-05-11T08:30:08.551Z,1.75
2019-05-11T08:32:35.313Z,1.25
2019-05-11T08:35:02.407Z,1.95
2019-05-11T08:37:28.926Z,2.20
2019-05-11T08:39:58.346Z,0.88
2019-05-11T08:42:24.707Z,3.25
2019-05-11T08:44:51.387Z,1.27
2019-05-11T08:47:20.880Z,3.20
2019-05-11T08:49:48.435Z,2.17
2019-05-11T08:52:15.269Z,1.60
2019-05-11T08:54:51.462Z,2.15
2019-05-11T08:57:18.300Z,1.77
2019-05-11T08:59:44.940Z,2.02
2019-05-11T09:02:11.661Z,1.98
2019-05-11T09:04:41.794Z,2.17
2019-05-11T09:07:07.865Z,1.65
2019-05-11T09:09:37.826Z,0.82
2019-05-11T09:12:04.333Z,1.45
2019-05-11T09:14:38.631Z,1.72
2019-05-11T09:17:03.545Z,1.17
2019-05-11T09:19:30.619Z,1.82
2019-05-11T09:21:59.158Z,1.65
2019-05-11T09:24:28.008Z,2.72
2019-05-11T09:26:54.303Z,1.15
2019-05-11T09:29:20.852Z,1.47
2019-05-11T09:31:48.711Z,1.35
2019-05-11T09:34:15.445Z,0.75
2019-05-11T09:36:41.897Z,1.37
2019-05-11T09:39:08.578Z,1.62
2019-05-11T09:41:38.079Z,1.92
2019-05-11T09:44:04.345Z,2.83
2019-05-11T09:46:31.494Z,0.93
2019-05-11T09:48:59.385Z,1.37
2019-05-11T09:51:28.581Z,1.45
2019-05-11T09:53:54.697Z,1.25
2019-05-11T09:56:21.228Z,2.30
2019-05-11T09:58:54.300Z,3.52
2019-05-11T10:01:20.784Z,2.95
2019-05-11T10:03:48.139Z,9.10
2019-05-11T10:06:15.364Z,3.70
2019-05-11T10:08:41.808Z,3.83
2019-05-11T10:11:08.578Z,4.12
2019-05-11T10:13:39.495Z,4.05
2019-05-11T10:16:10.782Z,4.30
2019-05-11T10:18:38.700Z,2.80
2019-05-11T10:21:07.928Z,3.65
2019-05-11T10:23:33.912Z,4.15
2019-05-11T10:26:00.844Z,5.55
2019-05-11T10:28:28.474Z,1.90
2019-05-11T10:30:57.686Z,2.25
2019-05-11T10:33:23.734Z,2.55
2019-05-11T10:35:50.627Z,2.30
2019-05-11T10:38:20.738Z,3.47
2019-05-11T10:40:48.145Z,10.95
2019-05-11T10:43:14.943Z,16.25
2019-05-11T10:45:41.637Z,8.90
2019-05-11T10:48:08.797Z,10.25
2019-05-11T10:50:37.902Z,7.90
2019-05-11T10:53:04.250Z,8.03
2019-05-11T10:55:30.899Z,5.70
2019-05-11T10:57:58.169Z,9.50
2019-05-11T11:00:28.097Z,6.53
2019-05-11T11:02:59.551Z,6.75
2019-05-11T11:05:27.917Z,4.90
2019-05-11T11:07:59.009Z,4.42
2019-05-11T11:10:25.595Z,5.08
2019-05-11T11:12:52.144Z,4.87
2019-05-11T11:15:19.257Z,3.60
2019-05-11T11:17:45.645Z,4.20
2019-05-11T11:20:12.565Z,3.17
2019-05-11T11:22:42.982Z,3.85
2019-05-11T11:25:07.943Z,3.22
2019-05-11T11:27:34.742Z,1.27
2019-05-11T11:30:01.407Z,3.10
2019-05-11T11:32:28.057Z,2.95
2019-05-11T11:34:54.894Z,4.25
2019-05-11T11:37:21.412Z,4.62
2019-05-11T11:39:48.906Z,1.77
2019-05-11T11:42:17.751Z,2.20
2019-05-11T11:44:44.136Z,2.58
2019-05-11T11:47:10.729Z,2.75
2019-05-11T11:49:38.332Z,3.12
2019-05-11T11:52:05.534Z,1.65
2019-05-11T11:54:32.087Z,2.30
2019-05-11T11:57:00.560Z,3.05
2019-05-11T11:59:28.645Z,4.92
2019-05-11T12:01:57.917Z,2.27
2019-05-11T12:04:28.276Z,8.05
2019-05-11T12:06:55.172Z,21.95
2019-05-11T12:09:21.474Z,17.40
2019-05-11T12:11:48.565Z,15.15
2019-05-11T12:14:15.359Z,5.60
2019-05-11T12:16:42.304Z,10.53
2019-05-11T12:19:08.670Z,11.85
2019-05-11T12:21:35.192Z,8.95
2019-05-11T12:24:01.552Z,9.00
2019-05-11T12:26:28.264Z,6.90
2019-05-11T12:28:55.046Z,6.60
2019-05-11T12:31:21.802Z,3.52
2019-05-11T12:33:48.918Z,3.95
2019-05-11T12:36:18.468Z,4.97
2019-05-11T12:38:44.243Z,6.22
2019-05-11T12:41:10.654Z,3.67
2019-05-11T12:43:38.206Z,3.60
2019-05-11T12:46:04.919Z,9.25
2019-05-11T12:48:31.868Z,6.47
2019-05-11T12:50:58.898Z,3.60
2019-05-11T12:53:27.807Z,3.75
2019-05-11T12:55:54.011Z,3.02
2019-05-11T12:58:23.229Z,2.42
2019-05-11T13:00:50.084Z,4.75
2019-05-11T13:03:18.629Z,2.72
2019-05-11T13:05:44.986Z,3.50
2019-05-11T13:08:11.416Z,3.10
2019-05-11T13:10:38.147Z,1.90
2019-05-11T13:13:04.576Z,2.72
2019-05-11T13:15:31.139Z,2.40
2019-05-11T13:17:58.106Z,2.10
2019-05-11T13:20:25.199Z,2.02
2019-05-11T13:22:52.122Z,5.03
2019-05-11T13:25:18.736Z,4.33
2019-05-11T13:27:46.464Z,4.60
2019-05-11T13:30:13.792Z,3.98
2019-05-11T13:32:40.312Z,5.17
2019-05-11T13:35:08.938Z,3.87
2019-05-11T13:37:35.364Z,6.53
2019-05-11T13:40:03.831Z,2.85
2019-05-11T13:42:30.382Z,3.30
2019-05-11T13:44:58.390Z,2.37
2019-05-11T13:47:50.920Z,7.40
2019-05-11T13:50:07.751Z,2.60
2019-05-11T13:52:34.333Z,6.70
2019-05-11T13:55:01.287Z,4.80
2019-05-11T13:57:28.596Z,2.12
2019-05-11T13:59:57.824Z,2.58
2019-05-11T14:02:23.836Z,2.65
2019-05-11T14:04:50.497Z,2.75
2019-05-11T14:07:18.651Z,4.70
2019-05-11T14:09:45.790Z,2.10
2019-05-11T14:12:12.345Z,1.27
2019-05-11T14:14:38.975Z,2.72
2019-05-11T14:17:08.123Z,1.07
2019-05-11T14:19:38.540Z,1.90
2019-05-11T14:22:05.123Z,2.05
2019-05-11T14:24:31.660Z,1.32
2019-05-11T14:26:58.249Z,1.65
2019-05-11T14:29:25.068Z,3.67
2019-05-11T14:31:51.500Z,1.45
2019-05-11T14:34:18.342Z,1.07
2019-05-11T14:36:45.069Z,1.82
2019-05-11T14:39:12.025Z,2.12
2019-05-11T14:41:38.591Z,1.05
2019-05-11T14:44:05.183Z,1.05
2019-05-11T14:46:31.967Z,4.30
2019-05-11T14:48:59.145Z,1.30
2019-05-11T14:51:25.590Z,1.05
2019-05-11T14:53:52.288Z,1.85
2019-05-11T14:56:19.147Z,1.65
2019-05-11T14:58:45.564Z,3.00
2019-05-11T15:01:14.647Z,1.22
2019-05-11T15:03:40.218Z,1.40
2019-05-11T15:06:08.272Z,1.52
2019-05-11T15:08:34.871Z,2.22
2019-05-11T15:11:01.707Z,1.60
2019-05-11T15:13:28.852Z,0.47
2019-05-11T15:15:55.576Z,2.12
2019-05-11T15:18:35.165Z,4.72
2019-05-11T15:20:50.726Z,2.47
2019-05-11T15:23:18.070Z,1.37
2019-05-11T15:25:45.495Z,0.80
2019-05-11T15:28:12.142Z,2.10
2019-05-11T15:30:38.894Z,1.72
2019-05-11T15:33:07.647Z,0.50
2019-05-11T15:35:37.766Z,0.65
2019-05-11T15:38:04.509Z,0.70
2019-05-11T15:40:30.971Z,2.95
2019-05-11T15:42:58.511Z,1.35
2019-05-11T15:45:27.541Z,0.60
2019-05-11T15:47:54.059Z,1.32
2019-05-11T15:50:20.999Z,0.50
2019-05-11T15:52:48.805Z,2.83
2019-05-11T15:55:18.594Z,0.93
2019-05-11T15:57:44.299Z,1.05
2019-05-11T16:00:10.954Z,1.92
2019-05-11T16:02:44.899Z,0.72
2019-05-11T16:05:11.359Z,1.50
2019-05-11T16:07:38.442Z,0.90
2019-05-11T16:10:07.940Z,1.20
2019-05-11T16:12:33.957Z,1.27
2019-05-11T16:15:00.761Z,3.77
2019-05-11T16:17:27.258Z,2.33
2019-05-11T16:19:53.691Z,2.58
2019-05-11T16:22:21.156Z,2.95
2019-05-11T16:24:48.564Z,0.60
2019-05-11T16:27:15.239Z,0.80
2019-05-11T16:29:41.801Z,0.33
2019-05-11T16:32:08.485Z,0.72
2019-05-11T16:34:35.317Z,1.20
2019-05-11T16:37:05.139Z,1.50
2019-05-11T16:39:30.845Z,0.70
2019-05-11T16:41:57.923Z,1.42
2019-05-11T16:44:24.924Z,1.77
2019-05-11T16:46:51.534Z,1.20
2019-05-11T16:49:27.929Z,1.75
2019-05-11T16:51:46.611Z,2.22
2019-05-11T16:54:12.960Z,0.88
2019-05-11T16:56:39.627Z,1.37
2019-05-11T16:59:08.178Z,0.55
2019-05-11T17:01:34.814Z,0.80
2019-05-11T17:04:01.256Z,1.12
2019-05-11T17:06:31.862Z,1.05
2019-05-11T17:08:58.360Z,0.80
2019-05-11T17:11:24.914Z,3.15
2019-05-11T17:13:51.265Z,0.82
2019-05-11T17:16:18.066Z,4.05
2019-05-11T17:18:44.823Z,3.77
2019-05-11T17:21:11.146Z,3.20
2019-05-11T17:23:38.457Z,1.37
2019-05-11T17:26:05.254Z,2.17
2019-05-11T17:28:31.664Z,2.00
2019-05-11T17:31:00.888Z,8.15
2019-05-11T17:33:26.638Z,6.03
2019-05-11T17:35:53.449Z,11.18
2019-05-11T17:38:19.868Z,3.70
2019-05-11T17:40:48.264Z,3.45
2019-05-11T17:43:15.209Z,5.25
2019-05-11T17:45:41.783Z,2.52
2019-05-11T17:48:10.373Z,6.65
2019-05-11T17:50:39.432Z,2.95
2019-05-11T17:53:06.045Z,5.15
2019-05-11T17:55:32.610Z,4.80
2019-05-11T17:57:59.041Z,1.90
2019-05-11T18:00:28.116Z,7.72
2019-05-11T18:02:54.251Z,3.58
2019-05-11T18:05:20.786Z,4.10
2019-05-11T18:07:47.628Z,6.90
2019-05-11T18:10:13.987Z,4.92
2019-05-11T18:12:40.700Z,4.08
2019-05-11T18:15:08.331Z,5.90
2019-05-11T18:17:35.482Z,3.42
2019-05-11T18:20:15.749Z,5.40
2019-05-11T18:22:32.155Z,2.25
2019-05-11T18:24:58.622Z,7.15
2019-05-11T18:27:27.811Z,1.77
2019-05-11T18:29:54.744Z,8.95
2019-05-11T18:32:21.586Z,4.37
2019-05-11T18:34:48.550Z,4.80
2019-05-11T18:37:15.380Z,2.95
2019-05-11T18:39:42.097Z,2.33
2019-05-11T18:42:09.265Z,6.17
2019-05-11T18:44:37.822Z,3.92
2019-05-11T18:47:04.339Z,2.17
2019-05-11T18:49:30.765Z,3.62
2019-05-11T18:51:58.648Z,2.02
2019-05-11T18:54:27.742Z,1.85
2019-05-11T18:56:54.444Z,3.60
2019-05-11T18:59:21.127Z,1.90
2019-05-11T19:01:48.480Z,2.22
2019-05-11T19:04:18.200Z,2.90
2019-05-11T19:06:44.061Z,1.80
2019-05-11T19:09:10.819Z,1.72
2019-05-11T19:11:38.301Z,2.77
2019-05-11T19:14:05.005Z,3.83
2019-05-11T19:16:31.659Z,2.10
2019-05-11T19:18:58.624Z,1.55
2019-05-11T19:21:25.451Z,4.90
2019-05-11T19:23:52.808Z,2.05
2019-05-11T19:26:20.654Z,8.73
2019-05-11T19:28:47.673Z,6.28
2019-05-11T19:31:14.331Z,3.80
2019-05-11T19:33:41.005Z,2.42
2019-05-11T19:36:08.149Z,3.35
2019-05-11T19:38:34.984Z,2.95
2019-05-11T19:41:02.212Z,1.25
2019-05-11T19:43:28.980Z,1.42
2019-05-11T19:45:57.883Z,2.90
2019-05-11T19:48:23.980Z,3.08
2019-05-11T19:51:03.694Z,1.42
2019-05-11T19:53:18.915Z,2.27
2019-05-11T19:55:47.796Z,4.53
2019-05-11T19:58:14.108Z,1.72
2019-05-11T20:00:40.929Z,2.45
2019-05-11T20:03:09.047Z,6.17
2019-05-11T20:05:37.991Z,2.58
2019-05-11T20:08:04.291Z,5.83
2019-05-11T20:10:30.780Z,3.17
2019-05-11T20:12:58.854Z,6.70
2019-05-11T20:15:25.653Z,8.88
2019-05-11T20:17:52.318Z,9.53
2019-05-11T20:20:19.114Z,8.98
2019-05-11T20:22:48.160Z,11.45
2019-05-11T20:25:14.171Z,6.03
2019-05-11T20:27:40.815Z,6.67
2019-05-11T20:30:08.661Z,3.58
2019-05-11T20:32:35.756Z,3.62
2019-05-11T20:35:03.798Z,4.40
2019-05-11T20:37:30.343Z,2.83
2019-05-11T20:39:58.556Z,3.20
2019-05-11T20:42:25.145Z,5.05
2019-05-11T20:44:51.691Z,4.28
2019-05-11T20:47:18.622Z,5.05
2019-05-11T20:49:45.286Z,5.87
2019-05-11T20:52:11.917Z,3.60
2019-05-11T20:54:38.640Z,5.47
2019-05-11T20:57:05.682Z,3.42
2019-05-11T20:59:32.509Z,3.62
2019-05-11T21:01:59.463Z,4.95
2019-05-11T21:04:28.202Z,3.02
2019-05-11T21:06:54.496Z,1.30
2019-05-11T21:09:20.905Z,1.80
2019-05-11T21:11:47.933Z,3.02
2019-05-11T21:14:15.041Z,3.25
2019-05-11T21:16:41.784Z,3.22
2019-05-11T21:19:08.362Z,1.95
2019-05-11T21:21:46.367Z,2.87
2019-05-11T21:24:03.338Z,2.75
2019-05-11T21:26:30.468Z,4.10
2019-05-11T21:28:58.015Z,2.35
2019-05-11T21:31:28.787Z,3.90
2019-05-11T21:33:54.970Z,2.77
2019-05-11T21:36:22.060Z,3.80
2019-05-11T21:38:48.600Z,1.60
2019-05-11T21:41:15.407Z,1.47
2019-05-11T21:43:42.163Z,2.83
2019-05-11T21:46:08.907Z,3.37
2019-05-11T21:48:35.650Z,2.25
2019-05-11T21:51:02.189Z,2.62
2019-05-11T21:53:28.879Z,2.70
2019-05-11T21:55:55.501Z,2.83
2019-05-11T21:58:23.253Z,3.15
2019-05-11T22:00:50.299Z,4.75
2019-05-11T22:03:18.838Z,2.05
2019-05-11T22:05:48.366Z,5.65
2019-05-11T22:08:14.395Z,2.55
2019-05-11T22:10:40.907Z,2.45
2019-05-11T22:13:07.747Z,2.37
2019-05-11T22:15:34.381Z,2.40
2019-05-11T22:18:01.431Z,1.98
2019-05-11T22:20:28.755Z,2.83
2019-05-11T22:22:58.056Z,2.17
2019-05-11T22:25:23.979Z,2.62
2019-05-11T22:27:50.645Z,1.80
2019-05-11T22:30:18.542Z,1.85
2019-05-11T22:32:47.667Z,3.00
2019-05-11T22:35:14.193Z,2.60
2019-05-11T22:37:41.136Z,2.35
2019-05-11T22:40:08.441Z,1.62
2019-05-11T22:42:35.374Z,4.15
2019-05-11T22:45:02.839Z,2.30
2019-05-11T22:47:29.288Z,2.37
2019-05-11T22:49:57.920Z,3.62
2019-05-11T22:52:35.800Z,2.77
2019-05-11T22:54:53.385Z,2.45
2019-05-11T22:57:19.948Z,2.20
2019-05-11T22:59:46.722Z,2.50
2019-05-11T23:02:13.912Z,2.45
2019-05-11T23:04:40.580Z,2.45
2019-05-11T23:07:08.028Z,2.02
2019-05-11T23:09:34.680Z,2.58
2019-05-11T23:12:01.332Z,1.52
2019-05-11T23:14:28.257Z,2.15
2019-05-11T23:16:55.276Z,2.02
2019-05-11T23:19:22.198Z,2.75
2019-05-11T23:21:48.966Z,3.20
2019-05-11T23:24:15.557Z,1.65
2019-05-11T23:26:42.198Z,5.97
2019-05-11T23:29:08.903Z,5.20
2019-05-11T23:31:35.639Z,1.57
2019-05-11T23:34:02.007Z,2.60
2019-05-11T23:36:28.791Z,4.03
2019-05-11T23:38:55.347Z,2.10
2019-05-11T23:41:24.638Z,3.90
2019-05-11T23:43:50.238Z,1.95
2019-05-11T23:46:17.577Z,6.03
2019-05-11T23:48:45.154Z,2.05
2019-05-11T23:51:11.646Z,4.08
2019-05-11T23:53:38.748Z,2.40
2019-05-11T23:56:05.503Z,4.50
2019-05-11T23:58:32.143Z,1.75
